Time;durP1;ratioP1;P1;durP2;ratioP2;P2;SDS_P1;SDS_P2;PMS_P1;PMS_P2;Temp;Humidity;BMP_temperature;BMP_pressure;BME280_temperature;BME280_humidity;BME280_pressure;Samples;Min_cycle;Max_cycle;Signal;HPM_P1;HPM_P2
2023/05/15 00:02:07;;;;;;;7.83;7.23;;;12.70;99.90;;;;;;10379337;28;20221;-84
2023/05/15 00:07:11;;;;;;;9.77;7.50;;;12.70;99.90;;;;;;10378224;28;20194;-83
2023/05/15 00:12:13;;;;;;;7.23;6.70;;;12.70;99.90;;;;;;10378998;28;20317;-84
2023/05/15 00:17:15;;;;;;;7.30;6.70;;;12.70;99.90;;;;;;10379987;28;20226;-83
2023/05/15 00:22:18;;;;;;;6.77;6.37;;;12.70;99.90;;;;;;10381543;28;20265;-83
2023/05/15 00:27:20;;;;;;;7.13;6.43;;;12.70;99.90;;;;;;10389237;28;20195;-83
2023/05/15 00:32:22;;;;;;;7.20;6.70;;;12.70;99.90;;;;;;10410824;28;20222;-83
2023/05/15 00:37:28;;;;;;;7.30;6.73;;;12.80;99.90;;;;;;10379260;28;20210;-84
2023/05/15 00:42:31;;;;;;;6.30;5.90;;;12.80;99.90;;;;;;10377827;28;20221;-84
2023/05/15 00:47:35;;;;;;;6.80;6.30;;;12.80;99.90;;;;;;10398422;28;20685;-83
2023/05/15 00:52:38;;;;;;;6.57;6.07;;;12.90;99.90;;;;;;10377272;28;20638;-84
2023/05/15 00:57:43;;;;;;;6.60;6.20;;;12.90;99.90;;;;;;10392314;28;20294;-84
2023/05/15 01:02:46;;;;;;;7.20;6.70;;;12.90;99.90;;;;;;10404901;28;20598;-84
2023/05/15 01:07:57;;;;;;;6.43;6.03;;;13.00;99.90;;;;;;10379561;28;20204;-83
2023/05/15 01:13:02;;;;;;;7.30;6.70;;;13.00;99.90;;;;;;10388387;28;20223;-82
2023/05/15 01:18:04;;;;;;;6.10;5.70;;;13.10;99.90;;;;;;10399762;28;20209;-83
2023/05/15 01:23:15;;;;;;;7.17;6.67;;;13.10;99.90;;;;;;10395879;28;20708;-83
2023/05/15 01:28:23;;;;;;;6.20;5.80;;;13.10;99.90;;;;;;10430521;28;20206;-83
2023/05/15 01:33:29;;;;;;;7.50;7.00;;;13.10;99.90;;;;;;10397683;28;20228;-83
2023/05/15 01:38:37;;;;;;;6.10;5.70;;;13.10;99.90;;;;;;10397176;28;20225;-83
2023/05/15 01:43:45;;;;;;;6.90;6.40;;;13.10;99.90;;;;;;10391315;28;20191;-83
2023/05/15 01:48:49;;;;;;;6.13;5.70;;;13.10;99.90;;;;;;10391790;28;20214;-84
2023/05/15 01:53:52;;;;;;;6.63;6.13;;;13.10;99.90;;;;;;10408505;28;20286;-83
2023/05/15 01:58:58;;;;;;;7.00;6.50;;;13.10;99.90;;;;;;10422174;28;20221;-84
2023/05/15 02:04:02;;;;;;;6.80;6.30;;;13.10;99.90;;;;;;10431553;28;20268;-84
2023/05/15 02:09:07;;;;;;;7.30;6.70;;;13.10;99.90;;;;;;10432394;28;20215;-83
2023/05/15 02:14:12;;;;;;;7.03;6.57;;;13.20;99.90;;;;;;10415635;28;20226;-83
2023/05/15 02:19:14;;;;;;;6.50;6.10;;;13.20;99.90;;;;;;10400029;28;20226;-83
2023/05/15 02:24:16;;;;;;;6.57;6.03;;;13.20;99.90;;;;;;10440110;28;20286;-83
2023/05/15 02:29:23;;;;;;;6.57;6.07;;;13.20;99.90;;;;;;10396391;28;20288;-83
2023/05/15 02:34:34;;;;;;;6.40;5.90;;;13.20;99.90;;;;;;10397711;28;20195;-83
2023/05/15 02:39:38;;;;;;;6.63;6.23;;;13.20;99.90;;;;;;10397412;28;20258;-83
2023/05/15 02:44:44;;;;;;;6.40;5.80;;;13.10;99.90;;;;;;10416726;28;20564;-83
2023/05/15 02:49:47;;;;;;;6.27;5.87;;;13.00;99.90;;;;;;10393247;28;20689;-82
2023/05/15 02:54:49;;;;;;;6.60;6.20;;;12.90;99.90;;;;;;10394430;28;20199;-85
2023/05/15 02:59:53;;;;;;;6.20;5.90;;;12.90;99.90;;;;;;10394935;28;20214;-83
2023/05/15 03:04:55;;;;;;;6.43;5.97;;;12.90;99.90;;;;;;10412319;28;20226;-83
2023/05/15 03:09:57;;;;;;;6.10;5.60;;;12.90;99.90;;;;;;10413592;28;20202;-84
2023/05/15 03:15:01;;;;;;;6.90;6.40;;;13.00;99.90;;;;;;10397592;28;20616;-83
2023/05/15 03:20:03;;;;;;;6.93;6.27;;;13.00;99.90;;;;;;10397316;28;20217;-83
2023/05/15 03:25:08;;;;;;;6.20;5.80;;;13.00;99.90;;;;;;10398315;28;20262;-83
2023/05/15 03:30:11;;;;;;;7.00;6.50;;;13.10;99.90;;;;;;10414536;28;20237;-84
2023/05/15 03:35:14;;;;;;;7.10;6.60;;;13.10;99.90;;;;;;10415598;28;20195;-84
2023/05/15 03:40:16;;;;;;;6.27;5.87;;;13.10;99.90;;;;;;10450509;22;20234;-83
2023/05/15 03:45:19;;;;;;;6.47;6.00;;;13.20;99.90;;;;;;10469534;28;20255;-82
2023/05/15 03:50:23;;;;;;;6.50;6.10;;;13.20;99.90;;;;;;10460500;28;20218;-81
2023/05/15 03:55:26;;;;;;;6.90;6.50;;;13.20;99.90;;;;;;10413783;28;20204;-79
2023/05/15 04:00:29;;;;;;;8.10;7.60;;;13.20;99.90;;;;;;10432768;28;20223;-80
2023/05/15 04:05:31;;;;;;;6.70;6.30;;;13.30;99.90;;;;;;10443899;28;20661;-81
2023/05/15 04:10:33;;;;;;;7.57;7.00;;;13.30;99.90;;;;;;10447594;28;20673;-81
2023/05/15 04:15:37;;;;;;;6.83;6.40;;;13.40;99.90;;;;;;10432587;28;20194;-83
2023/05/15 04:20:39;;;;;;;7.00;6.57;;;13.40;99.90;;;;;;10429350;28;20238;-81
2023/05/15 04:25:45;;;;;;;7.50;6.87;;;13.50;99.90;;;;;;10442918;28;20201;-83
2023/05/15 04:30:48;;;;;;;7.90;7.30;;;13.50;99.90;;;;;;10450537;28;20221;-83
2023/05/15 04:35:51;;;;;;;7.90;7.40;;;13.60;99.90;;;;;;10456756;28;20210;-82
2023/05/15 04:40:53;;;;;;;7.30;6.80;;;13.70;99.90;;;;;;10430072;28;20305;-82
2023/05/15 04:45:56;;;;;;;7.60;7.10;;;13.70;99.90;;;;;;10441122;28;20281;-82
2023/05/15 04:50:58;;;;;;;8.67;7.90;;;13.80;99.90;;;;;;10446365;28;20324;-82
2023/05/15 04:56:00;;;;;;;8.20;7.60;;;13.90;99.90;;;;;;10426430;28;20202;-82
2023/05/15 05:01:04;;;;;;;9.63;8.73;;;14.00;99.90;;;;;;10421667;28;20222;-83
2023/05/15 05:06:06;;;;;;;9.40;8.70;;;14.10;99.90;;;;;;10427015;28;20235;-80
2023/05/15 05:11:08;;;;;;;8.63;7.97;;;14.20;99.90;;;;;;10405964;28;20234;-82
2023/05/15 05:16:12;;;;;;;9.43;8.63;;;14.40;99.90;;;;;;10415694;28;20250;-82
2023/05/15 05:21:14;;;;;;;9.53;8.93;;;14.50;99.90;;;;;;10404154;28;20207;-80
2023/05/15 05:26:16;;;;;;;9.03;8.33;;;14.60;99.90;;;;;;10437271;28;20610;-81
2023/05/15 05:31:21;;;;;;;8.80;8.00;;;14.80;99.90;;;;;;10430445;28;20272;-80
2023/05/15 05:36:23;;;;;;;8.87;8.17;;;14.90;99.90;;;;;;10403903;28;20457;-81
2023/05/15 05:41:25;;;;;;;9.17;8.47;;;15.00;99.90;;;;;;10405236;28;20283;-82
2023/05/15 05:46:29;;;;;;;8.60;7.90;;;15.20;99.90;;;;;;10434896;28;20225;-78
2023/05/15 05:51:31;;;;;;;8.50;7.90;;;15.20;99.90;;;;;;10455942;28;20221;-82
2023/05/15 05:56:33;;;;;;;9.77;8.97;;;15.20;99.90;;;;;;10442146;28;20201;-83
2023/05/15 06:01:37;;;;;;;10.37;9.47;;;15.20;99.90;;;;;;10436761;28;20226;-81
2023/05/15 06:06:40;;;;;;;11.30;10.30;;;15.10;99.90;;;;;;10436470;28;20285;-82
2023/05/15 06:11:42;;;;;;;11.03;10.13;;;15.10;99.90;;;;;;10456597;28;20224;-81
2023/05/15 06:16:45;;;;;;;10.80;9.90;;;15.10;99.90;;;;;;10437806;28;20203;-80
2023/05/15 06:21:47;;;;;;;13.50;12.20;;;15.10;99.90;;;;;;10425142;28;20234;-83
2023/05/15 06:26:49;;;;;;;11.03;10.03;;;15.20;99.90;;;;;;10424599;28;20282;-83
2023/05/15 06:31:53;;;;;;;10.70;8.40;;;15.40;99.90;;;;;;10412472;28;20236;-83
2023/05/15 06:36:55;;;;;;;10.23;9.43;;;15.60;99.90;;;;;;10439408;28;20195;-83
2023/05/15 06:42:00;;;;;;;9.10;8.27;;;15.70;99.90;;;;;;10417186;28;20219;-84
2023/05/15 06:47:03;;;;;;;8.70;8.00;;;15.80;99.90;;;;;;10448010;28;20205;-81
2023/05/15 06:52:06;;;;;;;8.53;7.90;;;16.00;99.90;;;;;;10463458;28;20218;-81
2023/05/15 06:57:08;;;;;;;6.60;6.10;;;16.20;99.90;;;;;;10452895;28;20210;-78
2023/05/15 07:02:12;;;;;;;7.17;6.67;;;16.50;99.90;;;;;;10439110;28;20223;-79
2023/05/15 07:07:14;;;;;;;6.80;6.27;;;16.80;99.90;;;;;;10449234;28;20186;-81
2023/05/15 07:12:16;;;;;;;6.70;6.10;;;17.00;99.90;;;;;;10455394;28;20245;-80
2023/05/15 07:17:19;;;;;;;6.30;5.80;;;17.20;99.90;;;;;;10432800;28;20660;-82
2023/05/15 07:22:21;;;;;;;6.30;5.90;;;17.40;99.90;;;;;;10440508;28;20337;-81
2023/05/15 07:27:23;;;;;;;5.77;5.37;;;17.70;99.90;;;;;;10444829;28;20276;-83
2023/05/15 07:32:27;;;;;;;5.63;5.23;;;18.00;99.90;;;;;;10447869;28;20652;-81
2023/05/15 07:37:29;;;;;;;4.80;4.50;;;18.30;99.90;;;;;;10451477;28;20198;-81
2023/05/15 07:42:31;;;;;;;4.70;4.40;;;18.50;99.90;;;;;;10442965;28;20222;-81
2023/05/15 07:47:35;;;;;;;5.40;4.90;;;18.80;99.90;;;;;;10443955;28;20197;-79
2023/05/15 07:52:37;;;;;;;4.20;3.80;;;19.20;99.90;;;;;;10454954;28;20291;-82
2023/05/15 07:57:39;;;;;;;4.27;3.97;;;19.60;99.90;;;;;;10448473;28;20202;-79
2023/05/15 08:02:44;;;;;;;5.13;4.73;;;20.00;99.90;;;;;;10456736;28;20308;-81
2023/05/15 08:07:47;;;;;;;4.73;4.40;;;20.40;99.90;;;;;;10456292;28;20682;-81
2023/05/15 08:12:49;;;;;;;5.50;4.20;;;20.90;99.90;;;;;;10448048;28;20246;-81
2023/05/15 08:17:52;;;;;;;4.80;4.40;;;21.30;99.90;;;;;;10442740;28;20263;-81
2023/05/15 08:22:54;;;;;;;4.27;3.97;;;21.70;99.90;;;;;;10435907;28;20222;-80
2023/05/15 08:27:56;;;;;;;4.50;4.10;;;21.60;99.90;;;;;;10447657;28;20690;-79
2023/05/15 08:33:00;;;;;;;4.27;3.97;;;21.80;99.90;;;;;;10452130;28;20218;-80
2023/05/15 08:38:02;;;;;;;3.93;3.63;;;21.60;99.40;;;;;;10442148;28;20205;-80
2023/05/15 08:43:13;;;;;;;4.00;3.57;;;21.60;99.90;;;;;;10443141;28;20224;-81
2023/05/15 08:48:19;;;;;;;3.33;3.13;;;21.90;99.90;;;;;;10446946;28;20298;-81
2023/05/15 08:53:21;;;;;;;4.90;4.60;;;22.30;99.30;;;;;;10432776;28;20234;-80
2023/05/15 08:58:24;;;;;;;5.20;4.80;;;22.60;98.30;;;;;;10436558;28;20304;-79
2023/05/15 09:03:28;;;;;;;5.33;3.77;;;22.80;97.90;;;;;;10449507;28;20211;-81
2023/05/15 09:08:33;;;;;;;4.77;4.40;;;23.00;97.40;;;;;;10440083;28;20197;-80
2023/05/15 09:13:35;;;;;;;4.40;4.10;;;22.90;96.60;;;;;;10436398;28;20619;-80
2023/05/15 09:18:39;;;;;;;5.03;3.70;;;22.80;96.80;;;;;;10449243;28;20260;-80
2023/05/15 09:23:42;;;;;;;4.37;4.07;;;22.60;96.40;;;;;;10448460;28;20260;-80
2023/05/15 09:28:44;;;;;;;5.60;5.10;;;22.20;96.70;;;;;;10430950;28;20195;-81
2023/05/15 09:33:47;;;;;;;4.80;4.50;;;21.80;95.60;;;;;;10462774;28;20237;-80
2023/05/15 09:38:57;;;;;;;5.97;5.47;;;21.20;97.80;;;;;;10454660;28;20230;-80
2023/05/15 09:43:59;;;;;;;5.20;4.80;;;20.90;96.80;;;;;;10399424;28;20244;-79
2023/05/15 09:49:02;;;;;;;5.00;4.70;;;21.30;97.90;;;;;;10445462;28;20621;-79
2023/05/15 09:54:05;;;;;;;5.53;5.13;;;21.90;97.20;;;;;;10448004;28;20249;-80
2023/05/15 09:59:13;;;;;;;4.77;4.37;;;22.60;94.90;;;;;;10447085;28;20222;-79
2023/05/15 10:04:16;;;;;;;4.63;4.30;;;23.40;95.20;;;;;;10447524;28;20191;-79
2023/05/15 10:09:18;;;;;;;4.70;4.40;;;23.70;94.40;;;;;;10424921;28;20654;-79
2023/05/15 10:14:23;;;;;;;4.13;3.90;;;24.70;91.60;;;;;;10434369;28;20322;-79
2023/05/15 10:19:28;;;;;;;4.20;3.90;;;25.30;91.30;;;;;;10461679;28;20302;-79
2023/05/15 10:24:32;;;;;;;3.70;3.50;;;24.80;91.50;;;;;;10436323;28;20201;-78
2023/05/15 10:29:35;;;;;;;4.50;4.20;;;24.00;91.60;;;;;;10458941;28;20214;-79
2023/05/15 10:34:38;;;;;;;4.37;4.07;;;23.10;92.10;;;;;;10435722;28;20245;-82
2023/05/15 10:39:43;;;;;;;4.40;4.10;;;22.50;93.40;;;;;;10462323;28;20214;-79
2023/05/15 10:44:45;;;;;;;4.90;4.60;;;22.00;94.40;;;;;;10452864;28;20283;-79
2023/05/15 10:49:49;;;;;;;4.70;4.30;;;21.70;92.00;;;;;;10424242;28;20292;-81
2023/05/15 10:54:53;;;;;;;4.13;3.93;;;21.40;94.00;;;;;;10430975;28;20220;-79
2023/05/15 10:59:55;;;;;;;3.80;3.60;;;21.20;91.90;;;;;;10433600;28;20313;-79
2023/05/15 11:05:00;;;;;;;4.77;4.40;;;21.00;92.00;;;;;;10429027;28;20229;-79
2023/05/15 11:10:40;;;;;;;4.37;4.07;;;20.80;94.10;;;;;;10459787;28;20213;-81
2023/05/15 11:15:43;;;;;;;4.37;3.90;;;20.70;94.50;;;;;;10447233;28;20222;-81
2023/05/15 11:21:10;;;;;;;4.03;3.40;;;20.60;94.30;;;;;;10419220;28;20245;-81
2023/05/15 11:26:13;;;;;;;5.70;5.30;;;20.70;95.20;;;;;;10434289;28;20285;-80
2023/05/15 11:31:15;;;;;;;3.93;3.73;;;20.70;92.70;;;;;;10437417;28;20218;-79
2023/05/15 11:36:24;;;;;;;3.93;3.73;;;20.60;94.80;;;;;;10432601;28;20658;-79
2023/05/15 11:41:31;;;;;;;4.67;4.27;;;20.30;95.00;;;;;;10424384;28;20230;-80
2023/05/15 11:46:34;;;;;;;4.50;4.20;;;20.20;95.20;;;;;;10436395;28;20646;-79
2023/05/15 11:51:42;;;;;;;3.60;3.40;;;20.10;93.00;;;;;;10441342;28;20221;-79
2023/05/15 11:56:44;;;;;;;4.23;3.90;;;20.10;92.70;;;;;;10435614;28;20231;-79
2023/05/15 12:01:47;;;;;;;4.90;3.87;;;20.20;93.50;;;;;;10436663;28;20229;-79
2023/05/15 12:06:50;;;;;;;4.10;3.90;;;20.20;93.20;;;;;;10433486;28;20198;-82
2023/05/15 12:11:53;;;;;;;4.83;4.43;;;20.00;93.60;;;;;;10452862;28;20559;-79
2023/05/15 12:17:01;;;;;;;5.67;3.90;;;19.90;92.90;;;;;;10443565;28;20195;-79
2023/05/15 12:22:07;;;;;;;6.30;3.83;;;19.90;94.50;;;;;;10425899;28;20661;-79
2023/05/15 12:27:10;;;;;;;4.40;4.10;;;19.90;93.50;;;;;;10432165;28;20201;-79
2023/05/15 12:32:12;;;;;;;3.90;3.70;;;19.90;93.80;;;;;;10435623;28;20268;-82
2023/05/15 12:37:19;;;;;;;4.43;4.13;;;20.00;93.80;;;;;;10441740;28;20202;-79
2023/05/15 12:42:21;;;;;;;3.83;3.63;;;20.10;94.50;;;;;;10425475;28;20302;-79
2023/05/15 12:47:24;;;;;;;4.53;4.13;;;20.30;90.40;;;;;;10431106;28;20206;-79
2023/05/15 12:52:31;;;;;;;4.10;3.43;;;20.50;91.70;;;;;;10446973;28;20244;-79
2023/05/15 12:57:34;;;;;;;4.37;4.07;;;20.60;92.50;;;;;;10425339;28;20225;-79
2023/05/15 13:02:37;;;;;;;4.30;4.00;;;20.50;91.30;;;;;;10429777;28;20281;-79
2023/05/15 13:07:41;;;;;;;4.80;3.97;;;20.30;91.20;;;;;;10430542;28;20198;-79
2023/05/15 13:12:45;;;;;;;4.33;4.03;;;20.30;93.00;;;;;;10442316;28;20222;-79
2023/05/15 13:17:47;;;;;;;3.63;3.33;;;20.10;92.80;;;;;;10423639;28;20191;-79
2023/05/15 13:22:51;;;;;;;3.93;3.63;;;20.00;92.20;;;;;;10431552;28;20210;-79
2023/05/15 13:27:56;;;;;;;3.93;3.73;;;19.90;91.70;;;;;;10431043;28;20194;-79
2023/05/15 13:32:58;;;;;;;4.10;3.90;;;20.00;91.10;;;;;;10437740;28;20221;-79
2023/05/15 13:38:01;;;;;;;7.07;6.50;;;20.00;92.60;;;;;;10446925;28;20226;-79
2023/05/15 13:43:05;;;;;;;7.57;6.97;;;20.00;94.30;;;;;;10434304;28;20611;-82
2023/05/15 13:48:07;;;;;;;4.73;4.43;;;19.90;94.70;;;;;;10433716;28;20287;-79
2023/05/15 13:53:11;;;;;;;4.23;4.03;;;19.90;93.60;;;;;;10440446;28;20674;-79
2023/05/15 13:58:13;;;;;;;5.20;4.70;;;20.00;92.50;;;;;;10432603;28;20208;-79
2023/05/15 14:03:15;;;;;;;5.30;4.80;;;20.00;93.50;;;;;;10438975;28;20297;-79
2023/05/15 14:08:18;;;;;;;5.00;4.60;;;20.00;94.50;;;;;;10430786;28;20190;-79
2023/05/15 14:13:20;;;;;;;5.63;5.33;;;19.90;94.80;;;;;;10440781;28;20244;-78
2023/05/15 14:18:24;;;;;;;5.30;4.90;;;19.70;94.20;;;;;;10435382;28;20228;-79
2023/05/15 14:23:27;;;;;;;5.13;4.73;;;19.70;94.00;;;;;;10424326;28;20219;-79
2023/05/15 14:28:29;;;;;;;5.10;4.70;;;19.70;94.50;;;;;;10429610;28;20248;-81
2023/05/15 14:33:31;;;;;;;4.70;4.30;;;19.70;94.90;;;;;;10451374;28;20273;-79
2023/05/15 14:38:36;;;;;;;4.80;4.50;;;19.80;94.70;;;;;;10419648;28;20201;-81
2023/05/15 14:43:38;;;;;;;4.00;3.70;;;19.90;94.50;;;;;;10439551;28;20286;-81
2023/05/15 14:48:40;;;;;;;5.00;4.70;;;19.90;95.20;;;;;;10449797;28;20279;-79
2023/05/15 14:53:44;;;;;;;5.93;5.43;;;20.00;93.90;;;;;;10446243;28;20219;-79
2023/05/15 14:58:46;;;;;;;4.40;4.10;;;20.00;93.00;;;;;;10423926;28;20253;-81
2023/05/15 15:03:48;;;;;;;6.07;5.67;;;20.10;95.50;;;;;;10445474;28;20470;-79
2023/05/15 15:08:51;;;;;;;5.37;4.97;;;20.10;92.90;;;;;;10424987;28;20218;-81
2023/05/15 15:13:53;;;;;;;4.70;4.30;;;20.00;92.10;;;;;;10432416;28;20233;-79
2023/05/15 15:18:55;;;;;;;5.40;5.00;;;19.90;91.70;;;;;;10451217;28;20302;-81
2023/05/15 15:23:59;;;;;;;5.90;4.27;;;19.60;91.50;;;;;;10449119;28;20229;-80
2023/05/15 15:29:01;;;;;;;3.97;3.37;;;19.50;92.50;;;;;;10425416;28;20252;-81
2023/05/15 15:34:03;;;;;;;3.53;3.33;;;19.30;91.80;;;;;;10427256;28;20313;-81
2023/05/15 15:39:07;;;;;;;3.50;3.30;;;19.30;92.80;;;;;;10432849;28;20214;-81
2023/05/15 15:44:09;;;;;;;3.97;3.67;;;19.40;91.90;;;;;;10449430;28;20186;-80
2023/05/15 15:49:11;;;;;;;5.67;5.27;;;19.40;91.60;;;;;;10417131;28;20289;-78
2023/05/15 15:54:14;;;;;;;5.70;5.20;;;19.30;92.50;;;;;;10451298;28;20214;-80
2023/05/15 15:59:16;;;;;;;6.40;5.90;;;19.20;94.10;;;;;;10421048;28;20249;-79
2023/05/15 16:04:18;;;;;;;6.07;5.67;;;19.10;94.20;;;;;;10422777;28;20706;-78
2023/05/15 16:09:22;;;;;;;5.90;5.40;;;19.00;93.60;;;;;;10435669;28;20570;-80
2023/05/15 16:14:25;;;;;;;6.50;6.00;;;18.80;94.50;;;;;;10407311;28;20242;-80
2023/05/15 16:19:27;;;;;;;5.70;5.23;;;18.60;97.20;;;;;;10456211;28;20210;-79
2023/05/15 16:24:31;;;;;;;8.20;7.40;;;18.40;98.90;;;;;;10422729;28;20689;-80
2023/05/15 16:29:33;;;;;;;8.77;7.83;;;18.10;99.90;;;;;;10451790;28;20218;-80
2023/05/15 16:34:35;;;;;;;8.90;8.20;;;17.70;99.90;;;;;;10444610;28;20272;-79
2023/05/15 16:39:39;;;;;;;8.40;7.73;;;17.20;99.90;;;;;;10456383;28;20246;-79
2023/05/15 16:44:41;;;;;;;8.10;7.50;;;16.90;99.90;;;;;;10454110;28;20194;-80
2023/05/15 16:49:43;;;;;;;6.40;5.93;;;16.70;99.90;;;;;;10414700;28;20226;-80
2023/05/15 16:54:47;;;;;;;7.33;6.83;;;16.60;99.90;;;;;;10416576;28;20211;-77
2023/05/15 16:59:49;;;;;;;5.13;4.83;;;16.60;99.90;;;;;;10443825;28;20224;-80
2023/05/15 17:04:52;;;;;;;6.00;5.60;;;16.60;99.90;;;;;;10417020;28;20203;-80
2023/05/15 17:09:56;;;;;;;6.40;5.90;;;16.60;99.90;;;;;;10453572;28;20206;-80
2023/05/15 17:14:58;;;;;;;5.90;5.50;;;16.80;99.90;;;;;;10391036;28;20241;-79
2023/05/15 17:20:00;;;;;;;6.20;5.80;;;16.80;99.90;;;;;;10463529;28;20296;-80
2023/05/15 17:25:05;;;;;;;6.87;6.30;;;16.80;99.90;;;;;;10482799;28;20682;-80
2023/05/15 17:30:09;;;;;;;5.60;5.20;;;16.80;99.90;;;;;;10439464;28;20214;-80
2023/05/15 17:35:11;;;;;;;4.30;3.90;;;16.80;99.90;;;;;;10440395;28;20210;-81
2023/05/15 17:40:14;;;;;;;4.10;3.90;;;16.80;99.90;;;;;;10462483;28;20241;-80
2023/05/15 17:45:17;;;;;;;3.93;3.70;;;16.90;99.90;;;;;;10453169;28;20733;-80
2023/05/15 17:50:19;;;;;;;6.80;4.73;;;17.00;99.90;;;;;;10465806;28;20213;-80
2023/05/15 17:55:22;;;;;;;5.20;4.80;;;17.00;99.90;;;;;;10482498;28;20220;-80
2023/05/15 18:00:24;;;;;;;6.73;6.23;;;17.00;99.90;;;;;;10463003;28;20214;-80
2023/05/15 18:05:27;;;;;;;6.10;5.70;;;16.90;99.90;;;;;;10442846;28;20202;-80
2023/05/15 18:10:30;;;;;;;6.40;5.80;;;16.90;99.90;;;;;;10463458;28;20221;-80
2023/05/15 18:15:33;;;;;;;7.07;6.40;;;16.80;99.90;;;;;;10481472;28;20229;-80
2023/05/15 18:20:36;;;;;;;5.90;5.50;;;16.80;99.90;;;;;;10460156;28;20213;-81
2023/05/15 18:25:39;;;;;;;6.53;5.93;;;16.70;99.90;;;;;;10460551;28;20194;-80
2023/05/15 18:30:41;;;;;;;6.60;6.00;;;16.70;99.90;;;;;;10451622;28;20241;-80
2023/05/15 18:35:43;;;;;;;6.47;6.07;;;16.60;99.90;;;;;;10474604;28;20226;-80
2023/05/15 18:40:47;;;;;;;6.10;5.47;;;16.70;99.90;;;;;;10476827;28;20304;-81
2023/05/15 18:45:49;;;;;;;7.57;6.93;;;16.70;99.90;;;;;;10477896;28;20217;-80
2023/05/15 18:50:52;;;;;;;7.57;6.97;;;16.70;99.90;;;;;;10453650;28;20218;-81
2023/05/15 18:55:55;;;;;;;7.03;6.53;;;16.60;99.90;;;;;;10441223;28;20706;-81
2023/05/15 19:00:57;;;;;;;6.97;6.47;;;16.70;99.90;;;;;;10425198;28;20256;-81
2023/05/15 19:05:59;;;;;;;7.53;7.03;;;16.60;99.90;;;;;;10458874;28;20193;-81
2023/05/15 19:11:03;;;;;;;7.30;6.80;;;16.60;99.90;;;;;;10460361;28;20749;-81
2023/05/15 19:16:06;;;;;;;7.37;6.77;;;16.60;99.90;;;;;;10494639;28;20278;-81
2023/05/15 19:21:08;;;;;;;6.47;5.97;;;16.60;99.90;;;;;;10461222;28;20225;-82
2023/05/15 19:26:11;;;;;;;7.50;6.87;;;16.60;99.90;;;;;;10468782;28;20221;-81
2023/05/15 19:31:13;;;;;;;7.00;6.50;;;16.50;99.90;;;;;;10469438;28;20234;-81
2023/05/15 19:36:17;;;;;;;8.50;7.70;;;16.50;99.90;;;;;;10468765;28;20222;-83
2023/05/15 19:41:21;;;;;;;8.93;8.23;;;16.50;99.90;;;;;;10444435;28;20285;-83
2023/05/15 19:46:23;;;;;;;8.43;7.83;;;16.40;99.90;;;;;;10426015;28;20202;-83
2023/05/15 19:51:25;;;;;;;7.70;7.17;;;16.40;99.90;;;;;;10440466;28;20304;-83
2023/05/15 19:56:28;;;;;;;7.20;6.70;;;16.30;99.90;;;;;;10445412;28;20745;-82
2023/05/15 20:01:30;;;;;;;7.30;6.80;;;16.30;99.90;;;;;;10470942;28;20228;-81
2023/05/15 20:06:33;;;;;;;7.67;7.03;;;16.20;99.90;;;;;;10435376;28;20651;-82
2023/05/15 20:11:36;;;;;;;7.87;7.27;;;16.20;99.90;;;;;;10437792;28;20244;-83
2023/05/15 20:16:38;;;;;;;7.13;6.63;;;16.20;99.90;;;;;;10431798;28;20260;-80
2023/05/15 20:21:40;;;;;;;8.50;7.70;;;16.10;99.90;;;;;;10444942;28;20217;-83
2023/05/15 20:26:44;;;;;;;8.03;7.33;;;16.00;99.90;;;;;;10460731;28;20209;-81
2023/05/15 20:31:46;;;;;;;8.40;7.80;;;15.90;99.90;;;;;;10444530;28;20218;-81
2023/05/15 20:36:51;;;;;;;8.60;7.90;;;15.90;99.90;;;;;;10443449;28;20248;-81
2023/05/15 20:41:55;;;;;;;7.80;7.20;;;15.80;99.90;;;;;;10457725;28;20236;-80
2023/05/15 20:46:57;;;;;;;8.40;7.70;;;15.80;99.90;;;;;;10474791;28;20271;-81
2023/05/15 20:52:00;;;;;;;7.57;6.77;;;15.80;99.90;;;;;;10441403;28;20225;-80
2023/05/15 20:57:04;;;;;;;7.20;6.60;;;15.80;99.90;;;;;;10457725;28;20300;-81
2023/05/15 21:02:06;;;;;;;6.67;6.07;;;15.70;99.90;;;;;;10461332;28;20277;-81
2023/05/15 21:07:08;;;;;;;7.33;6.73;;;15.60;99.90;;;;;;10423002;28;20186;-81
2023/05/15 21:12:12;;;;;;;8.67;7.97;;;15.50;99.90;;;;;;10459690;28;20563;-80
2023/05/15 21:17:14;;;;;;;7.63;7.03;;;15.40;99.90;;;;;;10455156;28;20701;-81
2023/05/15 21:22:17;;;;;;;7.53;7.03;;;15.40;99.90;;;;;;10469634;28;20217;-81
2023/05/15 21:27:20;;;;;;;7.67;6.80;;;15.40;99.90;;;;;;10473753;28;20190;-79
2023/05/15 21:32:22;;;;;;;7.67;7.07;;;15.30;99.90;;;;;;10431104;28;20304;-80
2023/05/15 21:37:26;;;;;;;7.43;6.83;;;15.30;99.90;;;;;;10469207;28;20214;-82
2023/05/15 21:42:31;;;;;;;8.43;7.70;;;15.30;99.90;;;;;;10464234;28;20221;-83
2023/05/15 21:47:33;;;;;;;8.40;7.70;;;15.30;99.90;;;;;;10458596;28;20722;-81
2023/05/15 21:52:35;;;;;;;7.30;6.80;;;15.20;99.90;;;;;;10465062;28;20214;-79
2023/05/15 21:57:38;;;;;;;9.83;8.83;;;15.20;99.90;;;;;;10463793;28;20240;-79
2023/05/15 22:02:40;;;;;;;8.90;8.10;;;15.10;99.90;;;;;;10450005;28;20222;-81
2023/05/15 22:07:43;;;;;;;7.27;6.77;;;15.10;99.90;;;;;;10469963;28;20654;-81
2023/05/15 22:12:46;;;;;;;8.23;7.60;;;15.10;99.90;;;;;;10490915;28;20506;-81
2023/05/15 22:17:49;;;;;;;8.33;7.50;;;15.00;99.90;;;;;;10502671;28;20260;-80
2023/05/15 22:22:51;;;;;;;8.07;7.47;;;15.00;99.90;;;;;;10468495;28;20272;-81
2023/05/15 22:27:54;;;;;;;7.63;7.00;;;15.00;99.90;;;;;;10468479;28;20248;-81
2023/05/15 22:32:56;;;;;;;8.97;8.27;;;14.90;99.90;;;;;;10453376;28;20240;-80
2023/05/15 22:37:58;;;;;;;8.40;7.80;;;14.90;99.90;;;;;;10461854;28;20314;-80
2023/05/15 22:43:02;;;;;;;7.97;7.30;;;14.90;99.90;;;;;;10463010;28;20245;-81
2023/05/15 22:48:05;;;;;;;9.77;8.77;;;14.80;99.90;;;;;;10422551;28;20209;-80
2023/05/15 22:53:07;;;;;;;8.23;7.73;;;14.80;99.90;;;;;;10424281;28;20214;-81
2023/05/15 22:58:11;;;;;;;8.20;7.47;;;14.70;99.90;;;;;;10483270;28;20249;-80
2023/05/15 23:03:13;;;;;;;9.57;8.70;;;14.70;99.90;;;;;;10482034;28;20649;-80
2023/05/15 23:08:15;;;;;;;8.63;7.93;;;14.60;99.90;;;;;;10481010;28;20190;-80
2023/05/15 23:13:18;;;;;;;9.10;8.40;;;14.60;99.90;;;;;;10463967;28;20210;-81
2023/05/15 23:18:20;;;;;;;9.47;8.60;;;14.60;99.90;;;;;;10461981;28;20217;-81
2023/05/15 23:23:22;;;;;;;10.10;9.30;;;14.60;99.90;;;;;;10479246;28;20316;-80
2023/05/15 23:28:26;;;;;;;8.90;8.30;;;14.60;99.90;;;;;;10481870;28;20666;-80
2023/05/15 23:33:28;;;;;;;9.83;9.03;;;14.60;99.90;;;;;;10448032;28;20685;-80
2023/05/15 23:38:30;;;;;;;9.50;8.70;;;14.60;99.90;;;;;;10483653;28;20214;-80
2023/05/15 23:43:33;;;;;;;10.63;8.60;;;14.60;99.90;;;;;;10471813;28;20205;-80
2023/05/15 23:48:35;;;;;;;10.00;9.23;;;14.50;99.90;;;;;;10482860;28;20592;-80
2023/05/15 23:53:38;;;;;;;9.90;9.00;;;14.50;99.90;;;;;;10467580;28;20199;-80
2023/05/15 23:58:41;;;;;;;9.90;9.10;;;14.40;99.90;;;;;;10455964;28;20573;-81
